createdAt,value
2022-11-08T00:01:46.484Z,26.63
2022-11-08T00:07:07.673Z,26.00
2022-11-08T00:12:28.613Z,26.02
2022-11-08T00:17:32.262Z,25.15
2022-11-08T00:22:34.645Z,25.35
2022-11-08T00:27:36.918Z,24.38
2022-11-08T00:32:39.131Z,23.60
2022-11-08T00:37:41.364Z,24.38
2022-11-08T00:42:43.746Z,24.58
2022-11-08T00:47:45.922Z,24.77
2022-11-08T00:52:48.266Z,23.92
2022-11-08T00:58:05.440Z,24.85
2022-11-08T01:03:19.797Z,27.15
2022-11-08T01:08:23.950Z,30.38
2022-11-08T01:13:26.321Z,29.25
2022-11-08T01:18:28.780Z,26.90
2022-11-08T01:23:31.834Z,27.33
2022-11-08T01:28:34.814Z,27.23
2022-11-08T01:33:38.205Z,27.85
2022-11-08T01:38:40.607Z,26.55
2022-11-08T01:43:44.442Z,25.35
2022-11-08T01:48:52.339Z,25.55
2022-11-08T01:53:55.271Z,25.63
2022-11-08T01:59:00.499Z,26.10
2022-11-08T02:04:04.238Z,25.63
2022-11-08T02:09:11.157Z,23.40
2022-11-08T02:14:13.529Z,23.20
2022-11-08T02:19:35.984Z,23.48
2022-11-08T02:24:38.397Z,23.00
2022-11-08T02:29:41.507Z,22.50
2022-11-08T02:34:51.817Z,22.02
2022-11-08T02:39:54.193Z,21.88
2022-11-08T02:44:56.396Z,21.13
2022-11-08T02:49:58.577Z,21.08
2022-11-08T02:55:00.969Z,21.58
2022-11-08T03:00:03.263Z,20.70
2022-11-08T03:05:05.760Z,20.23
2022-11-08T03:10:08.332Z,19.55
2022-11-08T03:15:12.904Z,19.98
2022-11-08T03:20:15.080Z,20.02
2022-11-08T03:25:17.357Z,19.85
2022-11-08T03:30:19.748Z,17.73
2022-11-08T03:35:21.995Z,18.98
2022-11-08T03:40:24.894Z,17.70
2022-11-08T03:45:27.161Z,16.98
2022-11-08T03:50:29.539Z,16.13
2022-11-08T03:55:32.332Z,16.33
2022-11-08T04:00:34.651Z,16.60
2022-11-08T04:05:36.979Z,17.52
2022-11-08T04:10:39.312Z,17.20
2022-11-08T04:15:41.543Z,19.35
2022-11-08T04:21:04.764Z,17.70
2022-11-08T04:26:09.125Z,16.70
2022-11-08T04:31:19.905Z,19.10
2022-11-08T04:36:22.238Z,16.58
2022-11-08T04:41:25.706Z,15.63
2022-11-08T04:46:29.466Z,14.93
2022-11-08T04:51:33.961Z,16.33
2022-11-08T04:56:36.210Z,16.27
2022-11-08T05:01:38.569Z,16.67
2022-11-08T05:06:40.954Z,16.55
2022-11-08T05:11:43.143Z,17.05
2022-11-08T05:16:45.364Z,16.45
2022-11-08T05:22:05.926Z,17.98
2022-11-08T05:27:09.453Z,16.67
2022-11-08T05:32:11.639Z,17.23
2022-11-08T05:37:13.885Z,16.33
2022-11-08T05:42:16.200Z,16.88
2022-11-08T05:47:18.561Z,17.85
2022-11-08T05:52:20.899Z,16.30
2022-11-08T05:57:23.271Z,16.13
2022-11-08T06:02:25.677Z,15.75
2022-11-08T06:07:28.128Z,15.82
2022-11-08T06:12:30.361Z,16.85
2022-11-08T06:17:32.748Z,16.52
2022-11-08T06:22:36.017Z,17.98
2022-11-08T06:27:38.250Z,18.20
2022-11-08T06:32:40.656Z,18.02
2022-11-08T06:37:44.577Z,17.58
2022-11-08T06:42:46.818Z,16.52
2022-11-08T06:47:49.177Z,18.40
2022-11-08T06:53:06.264Z,19.15
2022-11-08T06:58:08.560Z,20.27
2022-11-08T07:03:11.135Z,20.17
2022-11-08T07:08:13.517Z,21.05
2022-11-08T07:13:16.426Z,16.38
2022-11-08T07:18:20.421Z,17.95
2022-11-08T07:23:23.382Z,17.73
2022-11-08T07:28:26.109Z,16.77
2022-11-08T07:33:28.743Z,17.88
2022-11-08T07:38:30.980Z,16.13
2022-11-08T07:43:33.247Z,15.73
2022-11-08T07:48:36.208Z,16.42
2022-11-08T07:53:38.574Z,16.35
2022-11-08T07:58:41.333Z,15.73
2022-11-08T08:03:44.333Z,17.13
2022-11-08T08:08:46.578Z,16.30
2022-11-08T08:13:49.005Z,18.25
2022-11-08T08:18:56.179Z,20.52
2022-11-08T08:23:59.122Z,21.15
2022-11-08T08:29:01.346Z,21.05
2022-11-08T08:34:03.695Z,19.70
2022-11-08T08:39:05.896Z,23.17
2022-11-08T08:44:08.297Z,23.00
2022-11-08T08:49:10.632Z,22.50
2022-11-08T08:54:15.154Z,17.63
2022-11-08T09:04:40.576Z,23.63
2022-11-08T09:09:42.840Z,22.33
2022-11-08T09:14:45.060Z,22.25
2022-11-08T09:19:47.397Z,20.65
2022-11-08T09:24:49.746Z,23.30
2022-11-08T09:29:52.129Z,22.98
2022-11-08T09:34:55.695Z,23.52
2022-11-08T09:39:57.985Z,24.00
2022-11-08T09:45:27.414Z,24.70
2022-11-08T09:50:40.081Z,20.97
2022-11-08T09:56:02.953Z,24.67
2022-11-08T10:01:05.606Z,22.95
2022-11-08T10:06:17.250Z,21.98
2022-11-08T10:11:52.359Z,21.20
2022-11-08T10:17:20.315Z,23.17
2022-11-08T10:23:01.659Z,19.77
2022-11-08T10:28:05.177Z,21.75
2022-11-08T10:33:31.549Z,21.42
2022-11-08T10:39:01.422Z,20.23
2022-11-08T10:44:27.049Z,23.35
2022-11-08T10:49:35.348Z,20.83
2022-11-08T10:54:57.169Z,21.20
2022-11-08T11:00:33.905Z,22.23
2022-11-08T11:05:38.623Z,21.92
2022-11-08T11:10:48.233Z,21.48
2022-11-08T11:16:08.150Z,21.77
2022-11-08T11:21:37.940Z,20.02
2022-11-08T11:26:48.443Z,18.35
2022-11-08T11:31:53.629Z,17.90
2022-11-08T11:36:59.328Z,17.00
2022-11-08T11:42:31.199Z,14.48
2022-11-08T11:47:33.914Z,17.73
2022-11-08T11:52:36.348Z,14.90
2022-11-08T11:57:56.858Z,15.57
2022-11-08T12:03:39.286Z,14.48
2022-11-08T12:09:00.109Z,17.63
2022-11-08T12:14:17.258Z,14.02
2022-11-08T12:19:40.925Z,14.27
2022-11-08T12:25:06.585Z,13.77
2022-11-08T12:30:26.882Z,20.23
2022-11-08T12:35:51.310Z,18.45
2022-11-08T12:41:08.308Z,12.75
2022-11-08T12:46:18.794Z,18.60
2022-11-08T12:51:26.589Z,13.82
2022-11-08T12:56:35.812Z,17.38
2022-11-08T13:07:04.371Z,12.65
2022-11-08T13:12:33.251Z,19.83
2022-11-08T13:17:35.665Z,11.38
2022-11-08T13:22:41.657Z,10.45
2022-11-08T13:27:49.063Z,11.32
2022-11-08T13:33:23.694Z,10.35
2022-11-08T13:38:41.732Z,10.70
2022-11-08T13:43:44.869Z,11.70
2022-11-08T13:49:02.467Z,12.43
2022-11-08T13:54:05.829Z,13.35
2022-11-08T13:59:29.949Z,15.90
2022-11-08T14:04:35.223Z,17.80
2022-11-08T14:09:46.621Z,10.85
2022-11-08T14:15:10.938Z,11.45
2022-11-08T14:20:31.221Z,10.40
2022-11-08T14:25:38.698Z,11.23
2022-11-08T14:30:50.734Z,10.35
2022-11-08T14:36:02.715Z,11.45
2022-11-08T14:41:07.604Z,11.18
2022-11-08T14:46:16.747Z,11.15
2022-11-08T14:51:19.333Z,11.90
2022-11-08T14:56:29.623Z,13.07
2022-11-08T15:01:32.105Z,12.90
2022-11-08T15:06:39.621Z,13.95
2022-11-08T15:11:43.330Z,12.88
2022-11-08T15:16:51.064Z,13.27
2022-11-08T15:21:53.392Z,15.27
2022-11-08T15:27:10.527Z,15.40
2022-11-08T15:32:18.472Z,17.92
2022-11-08T15:37:35.936Z,17.50
2022-11-08T15:42:44.763Z,17.17
2022-11-08T15:47:48.590Z,19.45
2022-11-08T15:52:55.936Z,19.27
2022-11-08T15:57:59.963Z,20.50
2022-11-08T16:03:02.321Z,19.65
2022-11-08T16:08:05.632Z,21.30
2022-11-08T16:13:16.263Z,20.25
2022-11-08T16:18:20.387Z,20.35
2022-11-08T16:23:22.969Z,22.05
2022-11-08T16:28:30.067Z,22.45
2022-11-08T16:33:33.801Z,21.50
2022-11-08T16:38:37.736Z,20.67
2022-11-08T16:43:39.944Z,19.85
2022-11-08T16:48:47.899Z,19.73
2022-11-08T16:53:50.320Z,20.40
2022-11-08T16:58:52.513Z,21.63
2022-11-08T17:03:54.672Z,22.25
2022-11-08T17:08:56.880Z,21.45
2022-11-08T17:13:59.316Z,22.10
2022-11-08T17:19:03.078Z,24.42
2022-11-08T17:24:05.792Z,22.77
2022-11-08T17:29:08.699Z,25.30
2022-11-08T17:34:11.731Z,25.15
2022-11-08T17:39:14.477Z,29.35
2022-11-08T17:44:17.176Z,49.17
2022-11-08T17:49:19.365Z,66.75
2022-11-08T17:54:21.700Z,65.53
2022-11-08T17:59:24.108Z,57.97
2022-11-08T18:04:26.563Z,51.80
2022-11-08T18:09:28.974Z,56.30
2022-11-08T18:14:31.411Z,58.00
2022-11-08T18:19:33.571Z,52.80
2022-11-08T18:24:35.768Z,51.85
2022-11-08T18:29:37.904Z,48.85
2022-11-08T18:34:40.210Z,48.08
2022-11-08T18:39:42.793Z,45.72
2022-11-08T18:44:45.664Z,40.60
2022-11-08T18:49:47.843Z,41.85
2022-11-08T18:54:50.089Z,39.78
2022-11-08T18:59:54.329Z,40.15
2022-11-08T19:04:59.195Z,37.90
2022-11-08T19:10:01.489Z,39.45
2022-11-08T19:15:04.128Z,39.38
2022-11-08T19:20:07.124Z,37.63
2022-11-08T19:25:09.998Z,47.03
2022-11-08T19:30:13.094Z,52.30
2022-11-08T19:35:15.578Z,61.28
2022-11-08T19:40:18.361Z,53.30
2022-11-08T19:45:20.581Z,44.90
2022-11-08T19:50:22.901Z,48.03
2022-11-08T19:55:25.281Z,46.38
2022-11-08T20:00:29.948Z,42.05
2022-11-08T20:05:33.070Z,46.58
2022-11-08T20:10:35.309Z,49.88
2022-11-08T20:15:37.469Z,44.40
2022-11-08T20:20:41.653Z,42.90
2022-11-08T20:25:44.048Z,43.53
2022-11-08T20:30:46.278Z,42.83
2022-11-08T20:35:48.851Z,45.83
2022-11-08T20:40:51.191Z,44.25
2022-11-08T20:45:53.835Z,44.72
2022-11-08T20:51:00.707Z,40.05
2022-11-08T20:56:06.365Z,42.28
2022-11-08T21:01:11.158Z,41.40
2022-11-08T21:06:16.244Z,42.60
2022-11-08T21:11:18.787Z,40.90
2022-11-08T21:16:53.146Z,40.40
2022-11-08T21:21:46.575Z,42.45
2022-11-08T21:26:48.866Z,38.30
2022-11-08T21:31:52.160Z,41.63
2022-11-08T21:36:54.367Z,41.88
2022-11-08T21:41:56.567Z,37.72
2022-11-08T21:46:58.757Z,38.70
2022-11-08T21:52:00.924Z,41.75
2022-11-08T21:57:03.273Z,38.90
2022-11-08T22:02:05.528Z,40.83
2022-11-08T22:07:07.761Z,38.85
2022-11-08T22:12:09.983Z,38.63
2022-11-08T22:17:12.694Z,37.90
2022-11-08T22:22:14.888Z,38.15
2022-11-08T22:27:17.523Z,38.58
2022-11-08T22:37:45.144Z,40.58
2022-11-08T22:42:47.335Z,38.03
2022-11-08T22:47:49.474Z,39.40
2022-11-08T22:52:51.654Z,39.15
2022-11-08T22:57:54.017Z,38.17
2022-11-08T23:02:57.123Z,39.13
2022-11-08T23:07:59.330Z,39.60
2022-11-08T23:13:20.479Z,32.55
2022-11-08T23:18:24.213Z,29.00
2022-11-08T23:23:44.826Z,29.85
2022-11-08T23:29:05.289Z,28.98
2022-11-08T23:34:07.438Z,29.50
2022-11-08T23:39:09.932Z,33.65
2022-11-08T23:44:24.394Z,36.25
2022-11-08T23:49:27.249Z,35.97
2022-11-08T23:54:29.568Z,32.03
2022-11-08T23:59:31.742Z,29.40
